createdAt,value
2022-11-19T00:03:47.556Z,3.80
2022-11-19T00:07:54.110Z,2.72
2022-11-19T00:12:16.746Z,1.85
2022-11-19T00:16:20.537Z,2.58
2022-11-19T00:20:24.078Z,6.63
2022-11-19T00:24:29.427Z,2.05
2022-11-19T00:28:34.350Z,5.00
2022-11-19T00:32:37.770Z,1.20
2022-11-19T00:36:41.238Z,2.33
2022-11-19T00:40:45.037Z,1.55
2022-11-19T00:44:50.221Z,1.35
2022-11-19T00:48:55.779Z,2.17
2022-11-19T00:52:59.724Z,1.80
2022-11-19T00:57:03.517Z,0.85
2022-11-19T01:01:09.591Z,1.52
2022-11-19T01:05:13.349Z,2.78
2022-11-19T01:09:16.797Z,1.30
2022-11-19T01:13:38.969Z,2.10
2022-11-19T01:17:43.814Z,2.35
2022-11-19T01:21:47.427Z,4.13
2022-11-19T01:25:51.363Z,1.25
2022-11-19T01:29:54.830Z,1.58
2022-11-19T01:34:00.185Z,0.70
2022-11-19T01:38:04.415Z,1.20
2022-11-19T01:42:27.947Z,3.05
2022-11-19T01:46:34.101Z,1.75
2022-11-19T01:50:44.691Z,1.05
2022-11-19T01:54:53.773Z,3.40
2022-11-19T01:59:01.867Z,5.93
2022-11-19T02:03:05.427Z,3.50
2022-11-19T02:07:13.483Z,0.50
2022-11-19T02:11:45.293Z,1.38
2022-11-19T02:15:53.379Z,0.20
2022-11-19T02:20:35.157Z,0.93
2022-11-19T02:24:51.755Z,5.10
2022-11-19T02:29:05.751Z,1.08
2022-11-19T02:33:14.635Z,1.27
2022-11-19T02:37:25.543Z,1.13
2022-11-19T02:41:38.179Z,0.52
2022-11-19T02:45:45.705Z,1.25
2022-11-19T02:49:55.723Z,1.70
2022-11-19T02:53:59.913Z,2.75
2022-11-19T02:58:08.229Z,2.33
2022-11-19T03:02:32.389Z,1.17
2022-11-19T03:06:38.084Z,0.40
2022-11-19T03:11:00.458Z,2.55
2022-11-19T03:15:33.806Z,5.10
2022-11-19T03:19:41.597Z,1.77
2022-11-19T03:23:52.859Z,2.30
2022-11-19T03:28:01.533Z,3.00
2022-11-19T03:32:08.948Z,4.90
2022-11-19T03:36:16.325Z,1.63
2022-11-19T03:40:23.631Z,1.88
2022-11-19T03:44:34.918Z,3.05
2022-11-19T03:48:39.758Z,3.40
2022-11-19T03:52:44.945Z,1.75
2022-11-19T03:56:52.046Z,2.88
2022-11-19T04:00:55.854Z,1.13
2022-11-19T04:04:59.410Z,0.70
2022-11-19T04:09:02.507Z,1.85
2022-11-19T04:13:07.029Z,2.03
2022-11-19T04:17:10.917Z,3.53
2022-11-19T04:21:14.544Z,2.83
2022-11-19T04:25:18.372Z,3.35
2022-11-19T04:29:23.076Z,2.20
2022-11-19T04:33:26.411Z,5.43
2022-11-19T04:37:29.994Z,21.20
2022-11-19T04:41:33.150Z,11.82
2022-11-19T04:45:38.038Z,12.50
2022-11-19T04:49:41.079Z,15.60
2022-11-19T04:53:44.543Z,14.40
2022-11-19T04:57:50.225Z,11.15
2022-11-19T05:01:55.448Z,14.98
2022-11-19T05:05:59.580Z,12.80
2022-11-19T05:10:02.779Z,12.38
2022-11-19T05:14:06.125Z,12.38
2022-11-19T05:18:12.069Z,12.27
2022-11-19T05:22:15.669Z,17.25
2022-11-19T05:26:19.215Z,12.02
2022-11-19T05:30:27.432Z,9.70
2022-11-19T05:34:32.380Z,25.95
2022-11-19T05:38:38.225Z,16.77
2022-11-19T05:42:41.943Z,18.00
2022-11-19T05:46:45.831Z,12.65
2022-11-19T05:50:50.308Z,22.77
2022-11-19T05:54:53.994Z,16.33
2022-11-19T05:58:57.520Z,20.90
2022-11-19T06:03:01.194Z,26.35
2022-11-19T06:07:05.868Z,16.17
2022-11-19T06:11:29.405Z,18.73
2022-11-19T06:15:33.020Z,64.78
2022-11-19T06:19:36.689Z,17.52
2022-11-19T06:23:41.617Z,21.05
2022-11-19T06:27:45.197Z,16.45
2022-11-19T06:31:48.635Z,19.75
2022-11-19T06:35:53.764Z,19.17
2022-11-19T06:39:58.690Z,14.65
2022-11-19T06:44:02.293Z,18.30
2022-11-19T06:48:05.593Z,18.70
2022-11-19T06:52:08.973Z,15.75
2022-11-19T06:56:14.325Z,21.30
2022-11-19T07:00:18.957Z,18.90
2022-11-19T07:04:22.496Z,20.25
2022-11-19T07:08:25.606Z,15.38
2022-11-19T07:12:30.540Z,20.13
2022-11-19T07:16:36.430Z,16.10
2022-11-19T07:20:39.923Z,19.65
2022-11-19T07:24:43.356Z,21.73
2022-11-19T07:28:48.187Z,15.45
2022-11-19T07:32:51.664Z,25.70
2022-11-19T07:36:54.738Z,22.17
2022-11-19T07:40:58.437Z,18.15
2022-11-19T07:45:06.922Z,20.98
2022-11-19T07:49:10.068Z,21.42
2022-11-19T07:53:13.106Z,21.48
2022-11-19T07:57:16.421Z,22.50
2022-11-19T08:01:23.332Z,28.13
2022-11-19T08:05:26.747Z,18.50
2022-11-19T08:09:29.848Z,25.08
2022-11-19T08:13:33.166Z,22.67
2022-11-19T08:17:55.172Z,26.40
2022-11-19T08:21:58.386Z,23.83
2022-11-19T08:26:01.805Z,21.48
2022-11-19T08:30:05.475Z,36.55
2022-11-19T08:34:10.108Z,20.80
2022-11-19T08:38:13.522Z,21.70
2022-11-19T08:42:34.285Z,26.55
2022-11-19T08:46:38.882Z,23.02
2022-11-19T08:50:43.611Z,19.85
2022-11-19T08:54:46.830Z,24.08
2022-11-19T08:58:50.740Z,22.63
2022-11-19T09:02:54.350Z,30.73
2022-11-19T09:06:58.919Z,23.67
2022-11-19T09:11:23.107Z,27.80
2022-11-19T09:15:26.871Z,31.55
2022-11-19T09:19:30.382Z,19.42
2022-11-19T09:23:35.040Z,21.48
2022-11-19T09:27:38.564Z,25.85
2022-11-19T09:31:43.266Z,21.23
2022-11-19T09:35:46.708Z,16.75
2022-11-19T09:39:51.202Z,26.25
2022-11-19T09:44:05.564Z,23.40
2022-11-19T09:48:22.314Z,21.42
2022-11-19T09:52:27.589Z,22.13
2022-11-19T09:56:37.227Z,20.00
2022-11-19T10:00:40.907Z,26.52
2022-11-19T10:04:44.868Z,22.55
2022-11-19T10:09:00.310Z,33.20
2022-11-19T10:13:33.434Z,31.58
2022-11-19T10:17:45.338Z,24.48
2022-11-19T10:21:58.187Z,32.80
2022-11-19T10:26:07.287Z,25.02
2022-11-19T10:30:18.193Z,25.70
2022-11-19T10:34:27.862Z,24.13
2022-11-19T10:38:37.999Z,26.33
2022-11-19T10:42:45.014Z,27.48
2022-11-19T10:46:51.872Z,28.10
2022-11-19T10:50:57.647Z,22.63
2022-11-19T10:55:06.824Z,24.75
2022-11-19T10:59:14.035Z,29.95
2022-11-19T11:03:24.748Z,31.00
2022-11-19T11:07:50.470Z,29.13
2022-11-19T11:12:12.110Z,28.77
2022-11-19T11:16:18.998Z,25.23
2022-11-19T11:20:28.527Z,29.85
2022-11-19T11:24:35.154Z,29.42
2022-11-19T11:28:38.390Z,21.63
2022-11-19T11:32:42.745Z,24.40
2022-11-19T11:36:47.498Z,24.23
2022-11-19T11:41:20.734Z,29.45
2022-11-19T11:45:28.963Z,19.30
2022-11-19T11:49:35.636Z,26.25
2022-11-19T11:53:40.528Z,29.88
2022-11-19T11:57:54.732Z,24.92
2022-11-19T12:02:02.583Z,28.40
2022-11-19T12:06:14.014Z,19.70
2022-11-19T12:10:35.959Z,25.38
2022-11-19T12:14:47.532Z,25.80
2022-11-19T12:19:06.037Z,27.02
2022-11-19T12:23:23.987Z,29.67
2022-11-19T12:27:34.849Z,29.77
2022-11-19T12:31:55.736Z,30.83
2022-11-19T12:36:09.098Z,18.70
2022-11-19T12:40:29.072Z,27.27
2022-11-19T12:44:49.415Z,27.42
2022-11-19T12:49:12.783Z,22.33
2022-11-19T12:53:29.453Z,23.35
2022-11-19T12:57:43.894Z,20.92
2022-11-19T13:01:52.623Z,24.08
2022-11-19T13:05:59.896Z,27.67
2022-11-19T13:10:09.412Z,27.38
2022-11-19T13:14:18.409Z,24.58
2022-11-19T13:18:24.423Z,19.63
2022-11-19T13:22:35.442Z,21.00
2022-11-19T13:26:39.903Z,21.58
2022-11-19T13:30:47.982Z,20.13
2022-11-19T13:35:06.034Z,21.98
2022-11-19T13:39:16.362Z,22.85
2022-11-19T13:43:39.515Z,18.75
2022-11-19T13:47:50.421Z,24.80
2022-11-19T13:52:01.856Z,22.15
2022-11-19T13:56:05.915Z,17.58
2022-11-19T14:00:23.894Z,21.25
2022-11-19T14:04:47.082Z,18.30
2022-11-19T14:09:02.806Z,28.05
2022-11-19T14:13:24.011Z,30.17
2022-11-19T14:17:54.965Z,27.48
2022-11-19T14:22:17.844Z,24.67
2022-11-19T14:26:54.383Z,28.40
2022-11-19T14:31:08.453Z,22.52
2022-11-19T14:35:39.898Z,21.52
2022-11-19T14:39:47.070Z,24.30
2022-11-19T14:44:10.156Z,19.73
2022-11-19T14:48:15.143Z,23.60
2022-11-19T14:52:24.403Z,31.83
2022-11-19T14:56:28.937Z,23.02
2022-11-19T15:00:35.409Z,24.98
2022-11-19T15:04:44.425Z,17.85
2022-11-19T15:08:53.174Z,23.55
2022-11-19T15:13:23.516Z,19.00
2022-11-19T15:17:27.930Z,17.77
2022-11-19T15:22:08.592Z,20.88
2022-11-19T15:26:20.918Z,19.63
2022-11-19T15:30:34.071Z,29.65
2022-11-19T15:39:25.401Z,23.42
2022-11-19T15:43:34.513Z,23.58
2022-11-19T15:47:43.972Z,24.38
2022-11-19T15:52:01.636Z,26.25
2022-11-19T15:56:10.264Z,23.98
2022-11-19T16:00:19.864Z,17.02
2022-11-19T16:04:24.468Z,28.83
2022-11-19T16:08:28.651Z,27.15
2022-11-19T16:12:50.893Z,22.25
2022-11-19T16:17:12.068Z,23.85
2022-11-19T16:21:19.224Z,25.48
2022-11-19T16:25:29.344Z,23.92
2022-11-19T16:29:37.426Z,23.52
2022-11-19T16:33:42.462Z,19.73
2022-11-19T16:37:47.889Z,24.30
2022-11-19T16:42:14.125Z,23.25
2022-11-19T16:46:23.427Z,26.80
2022-11-19T16:50:32.218Z,30.27
2022-11-19T16:54:47.624Z,27.35
2022-11-19T16:58:55.139Z,26.20
2022-11-19T17:03:00.247Z,38.05
2022-11-19T17:07:03.523Z,28.83
2022-11-19T17:11:39.711Z,26.92
2022-11-19T17:15:44.510Z,27.25
2022-11-19T17:19:50.030Z,27.15
2022-11-19T17:23:53.394Z,27.20
2022-11-19T17:27:59.088Z,37.90
2022-11-19T17:32:05.549Z,30.42
2022-11-19T17:36:15.152Z,29.90
2022-11-19T17:40:18.405Z,29.17
2022-11-19T17:44:35.171Z,19.00
2022-11-19T17:48:40.826Z,28.52
2022-11-19T17:52:46.338Z,28.10
2022-11-19T17:56:50.023Z,25.33
2022-11-19T18:00:53.230Z,28.52
2022-11-19T18:04:56.771Z,32.95
2022-11-19T18:09:01.618Z,30.92
2022-11-19T18:13:05.167Z,22.30
2022-11-19T18:17:11.245Z,25.50
2022-11-19T18:21:15.801Z,23.48
2022-11-19T18:25:22.446Z,20.02
2022-11-19T18:29:25.986Z,24.38
2022-11-19T18:33:29.610Z,24.10
2022-11-19T18:37:32.837Z,31.15
2022-11-19T18:41:38.191Z,24.35
2022-11-19T18:45:41.951Z,32.97
2022-11-19T18:49:45.673Z,21.63
2022-11-19T18:53:49.533Z,26.42
2022-11-19T18:57:54.175Z,29.08
2022-11-19T19:01:58.352Z,36.53
2022-11-19T19:06:03.154Z,33.72
2022-11-19T19:10:07.415Z,30.85
2022-11-19T19:14:12.452Z,22.40
2022-11-19T19:18:15.720Z,28.30
2022-11-19T19:22:21.120Z,30.58
2022-11-19T19:26:25.808Z,23.75
2022-11-19T19:30:30.736Z,29.77
2022-11-19T19:34:34.200Z,27.42
2022-11-19T19:38:38.009Z,30.30
2022-11-19T19:42:41.677Z,24.80
2022-11-19T19:46:48.953Z,31.40
2022-11-19T19:50:53.013Z,28.80
2022-11-19T19:54:56.203Z,30.85
2022-11-19T19:59:00.891Z,31.15
2022-11-19T20:03:05.915Z,33.00
2022-11-19T20:07:10.138Z,26.20
2022-11-19T20:11:15.830Z,23.92
2022-11-19T20:15:19.521Z,39.50
2022-11-19T20:19:25.281Z,27.52
2022-11-19T20:23:29.623Z,35.15
2022-11-19T20:27:33.242Z,28.92
2022-11-19T20:31:37.374Z,28.85
2022-11-19T20:35:51.418Z,29.70
2022-11-19T20:39:55.047Z,31.10
2022-11-19T20:44:16.324Z,26.67
2022-11-19T20:48:20.014Z,31.27
2022-11-19T20:52:25.279Z,25.13
2022-11-19T20:56:28.354Z,27.23
2022-11-19T21:00:33.550Z,31.10
2022-11-19T21:04:38.614Z,27.88
2022-11-19T21:08:43.590Z,29.65
2022-11-19T21:13:00.903Z,30.90
2022-11-19T21:17:04.288Z,27.63
2022-11-19T21:21:09.012Z,25.08
2022-11-19T21:25:13.648Z,26.25
2022-11-19T21:29:17.621Z,26.92
2022-11-19T21:33:20.721Z,30.73
2022-11-19T21:37:24.257Z,34.92
2022-11-19T21:41:29.217Z,39.88
2022-11-19T21:45:32.903Z,36.50
2022-11-19T21:49:36.096Z,32.35
2022-11-19T21:53:39.578Z,42.40
2022-11-19T21:57:45.356Z,31.30
2022-11-19T22:01:54.400Z,26.85
2022-11-19T22:06:01.492Z,39.60
2022-11-19T22:10:05.794Z,38.70
2022-11-19T22:14:11.126Z,31.98
2022-11-19T22:18:14.690Z,32.85
2022-11-19T22:22:17.778Z,39.55
2022-11-19T22:26:21.391Z,31.35
2022-11-19T22:30:26.546Z,35.55
2022-11-19T22:34:30.091Z,30.92
2022-11-19T22:38:33.264Z,33.22
2022-11-19T22:42:36.757Z,26.85
2022-11-19T22:46:41.850Z,33.28
2022-11-19T22:50:45.167Z,39.90
2022-11-19T22:54:48.642Z,33.75
2022-11-19T22:58:53.169Z,34.80
2022-11-19T23:02:58.112Z,33.88
2022-11-19T23:07:01.616Z,35.22
2022-11-19T23:11:07.467Z,30.55
2022-11-19T23:15:11.483Z,28.00
2022-11-19T23:19:19.912Z,29.70
2022-11-19T23:23:23.950Z,32.95
2022-11-19T23:27:27.558Z,43.42
2022-11-19T23:31:32.740Z,35.88
2022-11-19T23:35:37.936Z,33.08
2022-11-19T23:39:41.415Z,43.38
2022-11-19T23:43:45.670Z,45.55
2022-11-19T23:47:48.687Z,37.92
2022-11-19T23:51:53.715Z,40.50
2022-11-19T23:55:57.219Z,35.47
